Time;durP1;ratioP1;P1;durP2;ratioP2;P2;SDS_P1;SDS_P2;PMS_P1;PMS_P2;Temp;Humidity;BMP_temperature;BMP_pressure;BME280_temperature;BME280_humidity;BME280_pressure;Samples;Min_cycle;Max_cycle;Signal;HPM_P1;HPM_P2
2023/03/03 00:02:23;;;;;;;50.27;28.17;;;2.10;99.90;;;;;;5027927;28;20210;-40
2023/03/03 00:04:48;;;;;;;49.53;27.53;;;2.00;99.90;;;;;;5031433;28;20209;-39
2023/03/03 00:07:20;;;;;;;52.77;29.30;;;2.00;99.90;;;;;;5032967;28;20194;-39
2023/03/03 00:09:46;;;;;;;50.80;27.57;;;2.10;99.90;;;;;;5014934;28;20165;-39
2023/03/03 00:12:30;;;;;;;49.63;28.50;;;2.10;99.90;;;;;;5032961;28;20182;-39
2023/03/03 00:14:56;;;;;;;54.33;29.07;;;2.10;99.90;;;;;;4998623;28;20206;-39
2023/03/03 00:17:28;;;;;;;46.90;27.67;;;2.00;99.90;;;;;;5015126;28;20197;-39
2023/03/03 00:19:55;;;;;;;47.07;27.10;;;2.00;99.90;;;;;;4998664;28;20288;-39
2023/03/03 00:22:35;;;;;;;47.23;27.70;;;2.00;99.90;;;;;;5032906;28;20181;-43
2023/03/03 00:25:24;;;;;;;51.53;28.27;;;2.00;99.90;;;;;;5014698;28;20214;-41
2023/03/03 00:27:50;;;;;;;53.23;27.40;;;2.00;99.90;;;;;;5014940;28;20192;-43
2023/03/03 00:30:23;;;;;;;49.07;29.00;;;2.00;99.90;;;;;;5015088;28;20227;-40
2023/03/03 00:32:51;;;;;;;48.40;28.20;;;2.00;99.90;;;;;;5014513;28;20184;-40
2023/03/03 00:35:34;;;;;;;49.97;28.47;;;1.90;99.90;;;;;;5013836;28;20178;-41
2023/03/03 00:38:11;;;;;;;52.90;27.40;;;1.90;99.90;;;;;;5030063;28;20178;-40
2023/03/03 00:40:38;;;;;;;50.57;28.20;;;2.00;99.90;;;;;;5014277;28;20190;-39
2023/03/03 00:43:19;;;;;;;51.80;27.67;;;2.00;99.90;;;;;;5030641;28;20189;-41
2023/03/03 00:45:55;;;;;;;49.23;27.30;;;2.00;99.90;;;;;;5019120;28;20268;-38
2023/03/03 00:48:34;;;;;;;49.53;27.53;;;2.00;99.90;;;;;;4998058;28;20277;-39
2023/03/03 00:51:05;;;;;;;48.23;27.73;;;2.00;99.90;;;;;;5014191;28;20552;-41
2023/03/03 00:53:31;;;;;;;49.90;28.23;;;1.90;99.90;;;;;;5030945;28;20181;-43
2023/03/03 00:55:57;;;;;;;52.40;29.13;;;1.90;99.90;;;;;;5013645;28;20202;-38
2023/03/03 00:58:24;;;;;;;57.77;29.47;;;1.90;99.90;;;;;;5031338;28;20213;-38
2023/03/03 01:00:52;;;;;;;51.30;28.60;;;2.00;99.90;;;;;;4998649;28;20185;-39
2023/03/03 01:03:23;;;;;;;47.57;27.70;;;2.00;99.90;;;;;;5014589;28;20244;-38
2023/03/03 01:05:51;;;;;;;46.63;26.37;;;2.00;99.90;;;;;;5030103;28;20255;-39
2023/03/03 01:08:18;;;;;;;51.43;27.93;;;2.00;99.90;;;;;;5013899;28;20181;-38
2023/03/03 01:10:49;;;;;;;50.57;28.73;;;2.10;99.90;;;;;;5014169;28;20260;-37
2023/03/03 01:13:16;;;;;;;49.70;29.00;;;2.10;99.90;;;;;;5013727;28;20181;-41
2023/03/03 01:15:43;;;;;;;50.47;28.93;;;2.10;99.90;;;;;;5030330;28;20599;-41
2023/03/03 01:18:13;;;;;;;49.47;27.67;;;2.10;99.90;;;;;;4997181;28;20200;-39
2023/03/03 01:20:39;;;;;;;54.50;29.43;;;2.20;99.90;;;;;;5013972;28;20657;-43
2023/03/03 01:23:05;;;;;;;52.33;27.93;;;2.20;99.90;;;;;;5013559;28;20175;-39
2023/03/03 01:25:31;;;;;;;49.20;28.33;;;2.20;99.90;;;;;;5013597;28;20284;-43
2023/03/03 01:27:58;;;;;;;47.50;27.67;;;2.20;99.90;;;;;;5013406;28;20252;-38
2023/03/03 01:30:24;;;;;;;49.97;27.10;;;2.10;99.90;;;;;;5014344;28;20192;-41
2023/03/03 01:32:50;;;;;;;50.33;27.77;;;2.00;99.90;;;;;;4996734;28;20181;-38
2023/03/03 01:35:16;;;;;;;48.37;28.10;;;1.90;99.90;;;;;;4996923;28;20190;-38
2023/03/03 01:37:42;;;;;;;54.90;28.20;;;1.80;99.90;;;;;;4997071;28;20322;-38
2023/03/03 01:40:15;;;;;;;46.20;27.40;;;1.60;99.90;;;;;;5030223;28;20200;-37
2023/03/03 01:42:41;;;;;;;50.50;27.80;;;1.50;99.90;;;;;;5028088;28;20216;-38
2023/03/03 01:45:16;;;;;;;47.17;27.17;;;1.50;99.90;;;;;;5005676;28;20209;-38
2023/03/03 01:47:47;;;;;;;48.40;27.47;;;1.50;99.90;;;;;;5008256;28;20194;-37
2023/03/03 01:50:44;;;;;;;50.03;29.20;;;1.40;99.90;;;;;;5011197;28;20223;-38
2023/03/03 01:53:35;;;;;;;53.13;27.90;;;1.40;99.90;;;;;;5018181;28;20211;-39
2023/03/03 01:56:03;;;;;;;54.43;28.97;;;1.40;99.90;;;;;;5004366;28;20231;-37
2023/03/03 01:58:38;;;;;;;52.90;29.40;;;1.30;99.90;;;;;;5013186;28;20211;-38
2023/03/03 02:01:12;;;;;;;50.57;29.77;;;1.30;99.90;;;;;;4997367;28;20598;-39
2023/03/03 02:03:38;;;;;;;52.67;28.47;;;1.30;99.90;;;;;;4996699;28;20208;-40
2023/03/03 02:06:08;;;;;;;51.47;28.57;;;1.20;99.90;;;;;;5013397;28;20210;-38
2023/03/03 02:09:13;;;;;;;53.40;28.50;;;1.30;99.90;;;;;;4996933;28;20181;-37
2023/03/03 02:11:42;;;;;;;49.77;27.30;;;1.20;99.90;;;;;;4997016;28;20176;-38
2023/03/03 02:14:09;;;;;;;47.70;26.30;;;1.30;99.90;;;;;;5014444;28;20212;-38
2023/03/03 02:16:35;;;;;;;46.77;27.47;;;1.30;99.90;;;;;;5008203;28;20210;-40
2023/03/03 02:19:01;;;;;;;53.73;28.70;;;1.30;99.90;;;;;;5019055;28;20181;-41
2023/03/03 02:21:27;;;;;;;51.70;27.80;;;1.20;99.90;;;;;;5013564;28;20188;-41
2023/03/03 02:23:59;;;;;;;50.57;28.37;;;1.20;99.90;;;;;;5012744;28;20678;-38
2023/03/03 02:26:27;;;;;;;52.50;27.53;;;1.10;99.90;;;;;;5012974;28;20221;-37
2023/03/03 02:28:59;;;;;;;56.23;28.77;;;1.10;99.90;;;;;;5013147;28;20200;-41
2023/03/03 02:31:29;;;;;;;49.77;27.63;;;1.10;99.90;;;;;;4996939;28;20213;-37
2023/03/03 02:33:55;;;;;;;51.40;26.83;;;1.10;99.90;;;;;;4995727;28;20177;-39
2023/03/03 02:36:25;;;;;;;49.83;27.67;;;1.10;99.90;;;;;;4997249;28;20262;-41
2023/03/03 02:39:01;;;;;;;49.77;26.93;;;1.00;99.90;;;;;;5029698;28;20290;-38
2023/03/03 02:41:50;;;;;;;52.00;27.17;;;1.00;99.90;;;;;;4997057;28;20187;-37
2023/03/03 02:44:22;;;;;;;44.20;25.63;;;1.00;99.90;;;;;;4994072;28;20216;-37
2023/03/03 02:46:51;;;;;;;48.63;26.77;;;0.90;99.90;;;;;;5015857;28;20227;-38
2023/03/03 02:49:20;;;;;;;48.83;27.13;;;0.90;99.90;;;;;;5000723;28;20215;-38
2023/03/03 02:51:46;;;;;;;47.13;27.30;;;0.90;99.90;;;;;;5016215;28;20176;-38
2023/03/03 02:54:14;;;;;;;46.37;25.70;;;0.90;99.90;;;;;;5034667;28;20259;-39
2023/03/03 02:56:41;;;;;;;50.57;28.10;;;0.90;99.90;;;;;;5016061;28;20236;-37
2023/03/03 02:59:08;;;;;;;52.50;28.63;;;1.00;99.90;;;;;;5000405;28;20199;-37
2023/03/03 03:01:41;;;;;;;49.53;26.67;;;1.00;99.90;;;;;;5026835;28;20191;-39
2023/03/03 03:04:14;;;;;;;52.90;28.23;;;1.00;99.90;;;;;;5000350;28;20214;-37
2023/03/03 03:06:42;;;;;;;48.43;28.50;;;1.00;99.90;;;;;;5000141;28;20208;-38
2023/03/03 03:09:10;;;;;;;48.30;27.70;;;0.90;99.90;;;;;;5016342;28;20184;-38
2023/03/03 03:11:37;;;;;;;54.70;29.10;;;0.80;99.90;;;;;;5034442;28;20174;-37
2023/03/03 03:14:05;;;;;;;44.83;27.17;;;0.70;99.90;;;;;;4996541;28;20205;-37
2023/03/03 03:16:32;;;;;;;54.23;28.73;;;0.70;99.90;;;;;;5012501;28;20200;-37
2023/03/03 03:18:59;;;;;;;50.63;29.40;;;0.60;99.90;;;;;;5015590;28;20222;-37
2023/03/03 03:21:26;;;;;;;59.57;29.97;;;0.60;99.90;;;;;;5016433;28;20255;-39
2023/03/03 03:23:52;;;;;;;51.87;28.60;;;0.50;99.90;;;;;;5015823;28;20588;-39
2023/03/03 03:26:19;;;;;;;50.83;27.93;;;0.50;99.90;;;;;;5016070;28;20234;-37
2023/03/03 03:28:48;;;;;;;54.00;28.20;;;0.50;99.90;;;;;;5015727;28;20184;-39
2023/03/03 03:31:16;;;;;;;52.83;29.43;;;0.60;99.90;;;;;;4998505;28;20191;-39
2023/03/03 03:33:42;;;;;;;51.97;27.93;;;0.60;99.90;;;;;;5015362;28;20687;-37
2023/03/03 03:36:09;;;;;;;56.00;29.87;;;0.60;99.90;;;;;;5016145;28;20214;-37
2023/03/03 03:38:36;;;;;;;55.80;28.80;;;0.70;99.90;;;;;;4999145;28;20653;-39
2023/03/03 03:41:04;;;;;;;53.13;28.60;;;0.70;99.90;;;;;;5014301;28;20183;-38
2023/03/03 03:43:31;;;;;;;51.10;29.23;;;0.70;99.90;;;;;;5011386;28;20192;-41
2023/03/03 03:45:58;;;;;;;51.93;29.77;;;0.80;99.90;;;;;;4997925;28;20198;-38
2023/03/03 03:48:25;;;;;;;57.00;29.23;;;0.90;99.90;;;;;;4997846;28;20211;-37
2023/03/03 03:50:51;;;;;;;55.90;30.63;;;1.00;99.90;;;;;;5015709;28;20615;-39
2023/03/03 03:53:18;;;;;;;54.03;29.13;;;1.00;99.90;;;;;;4997957;28;20180;-42
2023/03/03 03:55:45;;;;;;;55.17;30.40;;;1.10;99.90;;;;;;5015526;28;20227;-39
2023/03/03 03:58:16;;;;;;;53.67;29.40;;;1.10;99.90;;;;;;5009228;28;20172;-40
2023/03/03 04:00:47;;;;;;;53.30;28.30;;;1.20;99.90;;;;;;4999298;28;20189;-39
2023/03/03 04:03:13;;;;;;;53.60;30.03;;;1.20;99.90;;;;;;5015391;28;20184;-40
2023/03/03 04:05:40;;;;;;;52.90;28.97;;;1.20;99.90;;;;;;5015270;28;20215;-43
2023/03/03 04:08:08;;;;;;;53.47;29.43;;;1.20;99.90;;;;;;4998556;28;20177;-39
2023/03/03 04:10:34;;;;;;;52.40;29.57;;;1.30;99.90;;;;;;5015088;28;20196;-39
2023/03/03 04:13:00;;;;;;;51.53;28.90;;;1.30;99.90;;;;;;5014946;28;20177;-41
2023/03/03 04:15:26;;;;;;;50.03;26.97;;;1.30;99.90;;;;;;4998764;28;20296;-40
2023/03/03 04:17:53;;;;;;;50.13;27.43;;;1.40;99.90;;;;;;5014709;28;20188;-40
2023/03/03 04:20:19;;;;;;;48.57;27.97;;;1.40;99.90;;;;;;5014858;28;20214;-40
2023/03/03 04:22:45;;;;;;;46.23;28.07;;;1.40;99.90;;;;;;4995418;28;20268;-43
2023/03/03 04:25:16;;;;;;;50.23;27.03;;;1.50;99.90;;;;;;5011288;28;20218;-40
2023/03/03 04:27:44;;;;;;;48.93;27.73;;;1.50;99.90;;;;;;5014752;28;20196;-39
2023/03/03 04:30:14;;;;;;;47.13;25.70;;;1.50;99.90;;;;;;4995404;28;20189;-40
2023/03/03 04:32:41;;;;;;;45.50;26.37;;;1.50;99.90;;;;;;5004255;28;20205;-40
2023/03/03 04:35:10;;;;;;;45.33;25.67;;;1.50;99.90;;;;;;4998790;28;20303;-43
2023/03/03 04:37:39;;;;;;;53.37;28.73;;;1.50;99.90;;;;;;4998175;28;20181;-39
2023/03/03 04:40:07;;;;;;;53.53;27.73;;;1.50;99.90;;;;;;5013644;28;20200;-39
2023/03/03 04:42:34;;;;;;;51.90;28.27;;;1.50;99.90;;;;;;4998746;28;20188;-46
2023/03/03 04:45:01;;;;;;;49.33;27.77;;;1.50;99.90;;;;;;5014419;28;20259;-40
2023/03/03 04:47:27;;;;;;;75.57;38.00;;;1.50;99.90;;;;;;4998117;28;20200;-41
2023/03/03 04:49:54;;;;;;;48.00;28.37;;;1.50;99.90;;;;;;5014659;28;20275;-44
2023/03/03 04:52:20;;;;;;;48.47;26.53;;;1.50;99.90;;;;;;5013914;28;20173;-40
2023/03/03 04:54:46;;;;;;;49.27;27.00;;;1.40;99.90;;;;;;4998184;28;20189;-39
2023/03/03 04:57:12;;;;;;;52.93;28.00;;;1.40;99.90;;;;;;5013429;28;20197;-39
2023/03/03 04:59:38;;;;;;;51.77;29.03;;;1.40;99.90;;;;;;4994784;28;20191;-39
2023/03/03 05:02:04;;;;;;;50.40;28.03;;;1.30;99.90;;;;;;5008658;28;20195;-39
2023/03/03 05:04:30;;;;;;;52.70;27.53;;;1.30;99.90;;;;;;5014413;28;20219;-39
2023/03/03 05:06:56;;;;;;;45.77;26.40;;;1.30;99.90;;;;;;4995473;28;20301;-40
2023/03/03 05:09:22;;;;;;;50.73;27.97;;;1.30;99.90;;;;;;4995544;28;20182;-39
2023/03/03 05:11:48;;;;;;;52.10;28.03;;;1.30;99.90;;;;;;5012286;28;20637;-39
2023/03/03 05:14:14;;;;;;;54.27;28.87;;;1.30;99.90;;;;;;5011708;28;20224;-39
2023/03/03 05:16:39;;;;;;;48.57;27.67;;;1.30;99.90;;;;;;5029533;28;20770;-39
2023/03/03 05:19:05;;;;;;;47.73;26.03;;;1.30;99.90;;;;;;5030192;28;20201;-39
2023/03/03 05:21:31;;;;;;;48.83;27.17;;;1.30;99.90;;;;;;5012959;28;20670;-39
2023/03/03 05:23:57;;;;;;;53.47;28.30;;;1.30;99.90;;;;;;5010528;28;20227;-39
2023/03/03 05:26:23;;;;;;;46.90;26.27;;;1.40;99.90;;;;;;5000437;28;20240;-39
2023/03/03 05:28:51;;;;;;;47.90;26.47;;;1.40;99.90;;;;;;4996292;28;20196;-39
2023/03/03 05:31:17;;;;;;;46.83;27.17;;;1.40;99.90;;;;;;4997081;28;20184;-39
2023/03/03 05:33:43;;;;;;;49.30;27.37;;;1.30;99.90;;;;;;4996397;28;20188;-39
2023/03/03 05:36:09;;;;;;;50.20;28.20;;;1.20;99.90;;;;;;5012898;28;20193;-39
2023/03/03 05:38:35;;;;;;;53.53;29.17;;;1.00;99.90;;;;;;4998219;28;20181;-40
2023/03/03 05:41:00;;;;;;;52.00;27.77;;;1.00;99.90;;;;;;4996937;28;20200;-39
2023/03/03 05:43:27;;;;;;;52.17;28.10;;;1.00;99.90;;;;;;4997086;28;20621;-39
2023/03/03 05:45:57;;;;;;;49.13;27.57;;;1.10;99.90;;;;;;5013093;28;20229;-39
2023/03/03 05:48:23;;;;;;;47.50;27.00;;;1.10;99.90;;;;;;5048761;28;20185;-39
2023/03/03 05:50:48;;;;;;;52.13;28.87;;;1.10;99.90;;;;;;5002155;28;20180;-39
2023/03/03 05:53:14;;;;;;;51.63;27.83;;;1.10;99.90;;;;;;5013979;28;20188;-39
2023/03/03 05:55:40;;;;;;;47.87;26.83;;;1.30;99.90;;;;;;5019366;28;20553;-39
2023/03/03 05:58:06;;;;;;;52.23;28.20;;;1.30;99.90;;;;;;5021496;28;20190;-39
2023/03/03 06:00:32;;;;;;;52.80;28.47;;;1.30;99.90;;;;;;4999983;28;20175;-39
2023/03/03 06:02:58;;;;;;;55.90;29.13;;;1.30;99.90;;;;;;5024053;28;20259;-40
2023/03/03 06:05:24;;;;;;;49.83;28.17;;;1.30;99.90;;;;;;5027499;28;20204;-39
2023/03/03 06:07:50;;;;;;;44.87;26.37;;;1.30;99.90;;;;;;5035840;28;20185;-42
2023/03/03 06:10:15;;;;;;;49.23;27.13;;;1.30;99.90;;;;;;5003840;28;20177;-39
2023/03/03 06:12:45;;;;;;;46.93;26.17;;;1.40;99.90;;;;;;5015227;28;20176;-41
2023/03/03 06:15:11;;;;;;;49.10;26.83;;;1.40;99.90;;;;;;5022262;28;20277;-39
2023/03/03 06:17:37;;;;;;;51.23;26.47;;;1.40;99.90;;;;;;5016640;28;20188;-40
2023/03/03 06:20:03;;;;;;;49.27;27.27;;;1.30;99.90;;;;;;5031452;28;20188;-39
2023/03/03 06:22:29;;;;;;;48.70;26.10;;;1.30;99.90;;;;;;5006243;28;20185;-40
2023/03/03 06:24:55;;;;;;;47.57;26.33;;;1.30;99.90;;;;;;5032210;28;20220;-39
2023/03/03 06:27:21;;;;;;;46.90;27.33;;;1.30;99.90;;;;;;5016000;28;20197;-39
2023/03/03 06:29:47;;;;;;;46.73;25.70;;;1.40;99.90;;;;;;5023213;28;20189;-40
2023/03/03 06:32:13;;;;;;;49.47;27.07;;;1.40;99.90;;;;;;5012489;28;20173;-39
2023/03/03 06:34:38;;;;;;;51.67;28.30;;;1.40;99.90;;;;;;5000346;28;20194;-39
2023/03/03 06:37:04;;;;;;;49.00;27.63;;;1.40;99.90;;;;;;5016709;28;20209;-39
2023/03/03 06:39:30;;;;;;;45.50;26.40;;;1.40;99.90;;;;;;5017189;28;20181;-40
2023/03/03 06:41:56;;;;;;;48.53;26.50;;;1.50;99.90;;;;;;5034310;28;20646;-39
2023/03/03 06:44:22;;;;;;;52.43;28.97;;;1.40;99.90;;;;;;5016266;28;20214;-40
2023/03/03 06:46:48;;;;;;;50.53;27.50;;;1.40;99.90;;;;;;4999930;28;20209;-39
2023/03/03 06:49:14;;;;;;;50.57;28.73;;;1.40;99.90;;;;;;5000991;28;20170;-39
2023/03/03 06:51:40;;;;;;;50.77;27.43;;;1.40;99.90;;;;;;5011553;28;20174;-39
2023/03/03 06:54:18;;;;;;;54.07;29.30;;;1.50;99.90;;;;;;5005504;28;20221;-39
2023/03/03 06:56:45;;;;;;;47.30;27.33;;;1.50;99.90;;;;;;5016123;28;20205;-39
2023/03/03 06:59:19;;;;;;;48.43;27.40;;;1.50;99.90;;;;;;5033227;28;20537;-39
2023/03/03 07:01:48;;;;;;;47.50;26.83;;;1.60;99.90;;;;;;5016222;28;20201;-39
2023/03/03 07:04:30;;;;;;;48.77;27.93;;;1.60;99.90;;;;;;5033787;28;20202;-40
2023/03/03 07:07:17;;;;;;;52.47;29.07;;;1.70;99.90;;;;;;5016338;28;20200;-40
2023/03/03 07:09:45;;;;;;;57.23;32.13;;;1.70;99.90;;;;;;5015680;28;20185;-41
2023/03/03 07:12:14;;;;;;;51.70;30.60;;;1.80;99.90;;;;;;5016546;28;20217;-39
2023/03/03 07:14:49;;;;;;;51.10;28.73;;;1.80;99.90;;;;;;5015875;28;20321;-44
2023/03/03 07:17:20;;;;;;;54.43;29.77;;;1.80;99.90;;;;;;5000011;28;20200;-43
2023/03/03 07:19:46;;;;;;;56.37;30.07;;;1.90;99.90;;;;;;5015974;28;20217;-40
2023/03/03 07:22:18;;;;;;;51.03;29.40;;;1.90;99.90;;;;;;5015494;28;20186;-42
2023/03/03 07:24:56;;;;;;;52.00;29.23;;;2.00;99.90;;;;;;4996219;28;20213;-40
2023/03/03 07:27:28;;;;;;;50.73;28.13;;;2.00;99.90;;;;;;4993064;28;20206;-41
2023/03/03 07:30:21;;;;;;;50.30;28.97;;;2.10;99.90;;;;;;5015364;28;20250;-43
2023/03/03 07:32:47;;;;;;;45.83;26.77;;;2.10;99.90;;;;;;5011877;28;20190;-42
2023/03/03 07:35:36;;;;;;;48.40;27.73;;;2.10;99.90;;;;;;5018206;28;20186;-40
2023/03/03 07:38:29;;;;;;;50.87;27.07;;;2.10;99.90;;;;;;5009203;28;20181;-40
2023/03/03 07:40:59;;;;;;;52.00;27.50;;;2.20;99.90;;;;;;5028186;28;20205;-44
2023/03/03 07:44:07;;;;;;;50.90;28.63;;;2.30;99.90;;;;;;5032399;28;20188;-43
2023/03/03 07:46:41;;;;;;;47.53;27.97;;;2.30;99.90;;;;;;5036144;28;20293;-41
2023/03/03 07:49:32;;;;;;;54.17;28.93;;;2.40;99.90;;;;;;5028993;28;20169;-41
2023/03/03 07:51:59;;;;;;;52.37;28.67;;;2.50;99.90;;;;;;5012565;28;20181;-42
2023/03/03 07:54:36;;;;;;;50.77;28.80;;;2.50;99.90;;;;;;5012558;28;20205;-40
2023/03/03 07:57:20;;;;;;;48.93;27.83;;;2.50;99.90;;;;;;5035515;28;20213;-44
2023/03/03 07:59:49;;;;;;;52.97;29.47;;;2.60;99.90;;;;;;5029466;28;20529;-42
2023/03/03 08:02:27;;;;;;;46.77;27.30;;;2.70;99.90;;;;;;5020121;28;20201;-40
2023/03/03 08:04:53;;;;;;;46.40;27.67;;;2.70;99.90;;;;;;5014543;28;20194;-41
2023/03/03 08:07:21;;;;;;;48.60;27.80;;;2.80;99.90;;;;;;5038020;28;20203;-43
2023/03/03 08:09:59;;;;;;;49.37;28.40;;;2.80;99.90;;;;;;5037828;28;20185;-42
2023/03/03 08:12:41;;;;;;;52.80;29.33;;;2.90;99.90;;;;;;5019016;28;20174;-41
2023/03/03 08:15:17;;;;;;;46.90;28.37;;;2.90;99.90;;;;;;5013811;28;20186;-44
2023/03/03 08:17:47;;;;;;;51.00;28.90;;;3.00;99.90;;;;;;5011263;28;20287;-42
2023/03/03 08:20:33;;;;;;;47.87;26.70;;;3.00;99.90;;;;;;5015375;28;20287;-42
2023/03/03 08:23:02;;;;;;;42.60;25.23;;;3.10;99.90;;;;;;5028312;28;20212;-42
2023/03/03 08:25:33;;;;;;;47.03;26.03;;;3.10;99.90;;;;;;4996849;28;20211;-41
2023/03/03 08:28:03;;;;;;;43.63;26.90;;;3.20;99.90;;;;;;5007715;28;20245;-38
2023/03/03 08:30:30;;;;;;;45.17;25.90;;;3.30;99.90;;;;;;5013132;28;20186;-38
2023/03/03 08:33:00;;;;;;;45.67;26.37;;;3.30;99.90;;;;;;5015642;28;20228;-38
2023/03/03 08:35:27;;;;;;;44.67;25.77;;;3.30;99.90;;;;;;5024320;28;20191;-41
2023/03/03 08:37:57;;;;;;;46.60;26.10;;;3.40;99.90;;;;;;5019260;28;20194;-37
2023/03/03 08:40:30;;;;;;;46.13;25.97;;;3.40;99.90;;;;;;5032710;28;20237;-37
2023/03/03 08:42:57;;;;;;;42.87;25.17;;;3.50;99.90;;;;;;5017424;28;20253;-40
2023/03/03 08:45:26;;;;;;;41.77;25.67;;;3.50;99.90;;;;;;5011421;28;20276;-38
2023/03/03 08:47:53;;;;;;;48.50;28.60;;;3.60;99.90;;;;;;5025057;28;20220;-41
2023/03/03 08:50:21;;;;;;;49.30;28.87;;;3.60;99.90;;;;;;4997662;28;20187;-39
2023/03/03 08:52:48;;;;;;;49.77;27.60;;;3.70;99.90;;;;;;5011876;28;20559;-39
2023/03/03 08:55:15;;;;;;;49.47;27.63;;;3.70;99.90;;;;;;4988716;28;20210;-40
2023/03/03 08:57:42;;;;;;;48.93;28.23;;;3.80;99.90;;;;;;5034338;28;20210;-43
2023/03/03 09:00:11;;;;;;;49.10;29.07;;;3.80;99.90;;;;;;5015213;28;20189;-38
2023/03/03 09:02:39;;;;;;;49.27;28.53;;;3.90;99.90;;;;;;5038357;28;20196;-38
2023/03/03 09:05:10;;;;;;;46.73;27.47;;;3.90;99.90;;;;;;5041568;28;20217;-39
2023/03/03 09:07:47;;;;;;;48.13;28.27;;;4.00;99.90;;;;;;5035982;28;20204;-40
2023/03/03 09:10:18;;;;;;;47.33;27.17;;;4.10;99.90;;;;;;5040879;28;20182;-38
2023/03/03 09:12:48;;;;;;;49.27;27.80;;;4.10;99.90;;;;;;5039556;28;20190;-37
2023/03/03 09:15:17;;;;;;;47.03;26.60;;;4.20;99.90;;;;;;5002071;28;20171;-39
2023/03/03 09:17:45;;;;;;;45.70;26.90;;;4.30;99.90;;;;;;5014933;28;20261;-38
2023/03/03 09:20:23;;;;;;;46.97;26.97;;;4.40;99.90;;;;;;5011450;28;20175;-39
2023/03/03 09:22:49;;;;;;;49.63;27.33;;;4.40;99.90;;;;;;5008920;28;20178;-38
2023/03/03 09:25:31;;;;;;;44.33;26.20;;;4.50;99.90;;;;;;5030241;28;20305;-39
2023/03/03 09:28:01;;;;;;;45.40;26.77;;;4.60;99.90;;;;;;5029595;28;20218;-38
2023/03/03 09:30:43;;;;;;;48.60;27.53;;;4.80;99.90;;;;;;5012981;28;20194;-40
2023/03/03 09:33:23;;;;;;;47.50;26.73;;;4.90;99.90;;;;;;4996951;28;20185;-39
2023/03/03 09:36:34;;;;;;;46.93;26.80;;;5.00;99.90;;;;;;5013310;28;20214;-38
2023/03/03 09:39:18;;;;;;;46.83;27.20;;;5.10;99.90;;;;;;4998798;28;20182;-38
2023/03/03 09:41:57;;;;;;;47.17;27.47;;;5.10;99.90;;;;;;4997182;28;20182;-38
2023/03/03 09:44:52;;;;;;;45.20;26.93;;;5.20;99.90;;;;;;4996730;28;20202;-38
2023/03/03 09:47:37;;;;;;;46.87;27.00;;;5.20;99.90;;;;;;4996571;28;20285;-37
2023/03/03 09:50:29;;;;;;;46.80;27.40;;;5.10;99.90;;;;;;4994102;28;20179;-39
2023/03/03 09:53:18;;;;;;;46.83;26.97;;;5.20;99.90;;;;;;5003515;28;20198;-40
2023/03/03 09:55:57;;;;;;;42.03;25.33;;;5.30;99.90;;;;;;5041219;28;20338;-41
2023/03/03 09:58:45;;;;;;;42.60;26.67;;;5.30;99.90;;;;;;5031344;28;20182;-40
2023/03/03 10:01:39;;;;;;;46.10;26.67;;;5.30;99.90;;;;;;5029138;28;20175;-40
2023/03/03 10:04:41;;;;;;;49.47;28.07;;;5.40;99.90;;;;;;5012942;28;20219;-41
2023/03/03 10:07:38;;;;;;;42.23;26.80;;;5.40;99.90;;;;;;5013599;28;20209;-46
2023/03/03 10:10:10;;;;;;;44.03;25.57;;;5.60;99.90;;;;;;4996903;28;20212;-42
2023/03/03 10:12:43;;;;;;;46.73;27.10;;;5.70;99.90;;;;;;4996246;28;20210;-40
2023/03/03 10:15:39;;;;;;;44.27;25.83;;;5.80;99.90;;;;;;5012348;28;20187;-40
2023/03/03 10:18:24;;;;;;;47.33;27.13;;;6.00;99.90;;;;;;5010174;28;20172;-40
2023/03/03 10:21:12;;;;;;;43.60;25.90;;;6.20;99.90;;;;;;5031033;28;20178;-40
2023/03/03 10:23:55;;;;;;;42.77;26.60;;;6.30;99.90;;;;;;4995119;28;20196;-40
2023/03/03 10:26:40;;;;;;;44.10;25.90;;;6.50;99.90;;;;;;4999585;28;20241;-40
2023/03/03 10:29:32;;;;;;;44.00;25.83;;;6.60;99.90;;;;;;4996675;28;20275;-41
2023/03/03 10:32:29;;;;;;;47.90;27.40;;;6.60;99.90;;;;;;4997883;28;20179;-40
2023/03/03 10:35:21;;;;;;;41.37;24.33;;;6.70;99.90;;;;;;5033759;28;20237;-40
2023/03/03 10:38:05;;;;;;;47.83;27.27;;;7.10;99.90;;;;;;5030849;28;20186;-40
2023/03/03 10:41:10;;;;;;;41.83;26.17;;;7.40;99.90;;;;;;5012832;28;20196;-40
2023/03/03 10:44:10;;;;;;;42.77;26.67;;;7.50;99.90;;;;;;5012955;28;20224;-43
2023/03/03 10:46:50;;;;;;;42.53;26.43;;;7.50;99.90;;;;;;5012693;28;20221;-40
2023/03/03 10:49:32;;;;;;;42.33;26.83;;;7.50;99.90;;;;;;5031032;28;20186;-41
2023/03/03 10:52:32;;;;;;;41.77;25.50;;;7.40;99.90;;;;;;5029415;28;20186;-40
2023/03/03 10:55:23;;;;;;;41.63;26.50;;;7.40;99.90;;;;;;5030126;28;20651;-41
2023/03/03 10:58:10;;;;;;;42.30;26.10;;;7.40;99.90;;;;;;4996458;28;20190;-40
2023/03/03 11:00:51;;;;;;;44.70;26.30;;;7.60;99.90;;;;;;4993377;28;20181;-41
2023/03/03 11:03:40;;;;;;;43.47;26.00;;;7.60;99.90;;;;;;5022132;28;20182;-44
2023/03/03 11:06:28;;;;;;;42.23;26.13;;;7.70;99.90;;;;;;5033659;28;20213;-41
2023/03/03 11:09:07;;;;;;;44.30;25.43;;;7.70;99.90;;;;;;5016264;28;20186;-40
2023/03/03 11:11:48;;;;;;;41.27;25.70;;;7.70;99.90;;;;;;5000064;28;20178;-40
2023/03/03 11:14:32;;;;;;;43.23;27.37;;;7.80;99.90;;;;;;4998094;28;20178;-40
2023/03/03 11:17:42;;;;;;;43.67;27.20;;;7.90;99.90;;;;;;5013108;28;20210;-40
2023/03/03 11:20:19;;;;;;;42.43;26.93;;;8.00;99.90;;;;;;5001512;28;20190;-40
2023/03/03 11:23:05;;;;;;;41.00;26.47;;;8.30;99.90;;;;;;5010283;28;20197;-40
2023/03/03 11:25:51;;;;;;;40.97;26.73;;;8.50;99.90;;;;;;5029752;28;20210;-41
2023/03/03 11:28:39;;;;;;;41.57;26.57;;;8.50;99.90;;;;;;5018057;28;20628;-43
2023/03/03 11:31:18;;;;;;;40.80;26.07;;;8.50;99.90;;;;;;5019583;28;20178;-41
2023/03/03 11:34:26;;;;;;;40.17;25.47;;;8.50;99.90;;;;;;5025891;28;20182;-41
2023/03/03 11:37:19;;;;;;;40.77;27.10;;;8.70;99.90;;;;;;5028425;28;20214;-44
2023/03/03 11:39:52;;;;;;;44.83;26.83;;;8.90;99.90;;;;;;4969793;28;20199;-46
2023/03/03 11:42:34;;;;;;;40.00;25.30;;;9.00;99.90;;;;;;4999207;28;20277;-47
2023/03/03 11:45:22;;;;;;;42.33;26.97;;;9.10;99.90;;;;;;5016184;28;20213;-43
2023/03/03 11:48:23;;;;;;;42.37;26.13;;;9.30;99.90;;;;;;5034870;28;20182;-43
2023/03/03 11:51:10;;;;;;;40.57;25.80;;;9.60;99.90;;;;;;4999335;28;20179;-44
2023/03/03 11:53:53;;;;;;;42.70;27.23;;;9.90;99.90;;;;;;5033048;28;20186;-41
2023/03/03 11:56:37;;;;;;;41.17;26.53;;;10.00;99.90;;;;;;5015528;28;20190;-42
2023/03/03 11:59:29;;;;;;;43.43;27.17;;;10.10;99.90;;;;;;4998983;28;20177;-45
2023/03/03 12:02:17;;;;;;;40.03;26.90;;;10.20;99.90;;;;;;5015727;28;20189;-42
2023/03/03 12:05:05;;;;;;;41.80;26.57;;;10.30;99.90;;;;;;4998749;28;20210;-47
2023/03/03 12:07:44;;;;;;;39.70;26.17;;;10.20;99.90;;;;;;5014739;28;20202;-45
2023/03/03 12:10:29;;;;;;;39.50;26.00;;;10.30;99.90;;;;;;4998680;28;20186;-40
2023/03/03 12:13:04;;;;;;;43.20;27.97;;;10.50;99.90;;;;;;4998729;28;20185;-42
2023/03/03 12:15:45;;;;;;;40.33;25.40;;;10.80;99.90;;;;;;5014213;28;20206;-42
2023/03/03 12:18:36;;;;;;;41.13;25.90;;;11.10;99.90;;;;;;5033223;28;20187;-41
2023/03/03 12:21:17;;;;;;;40.13;25.73;;;11.10;99.90;;;;;;5018299;28;20189;-41
2023/03/03 12:24:15;;;;;;;38.73;25.70;;;10.90;99.90;;;;;;5030297;28;20742;-46
2023/03/03 12:27:24;;;;;;;42.53;26.00;;;10.90;99.90;;;;;;5014960;28;20303;-42
2023/03/03 12:30:12;;;;;;;39.53;26.40;;;10.60;99.90;;;;;;4933860;29;20187;-40
2023/03/03 12:33:02;;;;;;;39.67;26.87;;;10.70;99.90;;;;;;5029039;28;20188;-44
2023/03/03 12:35:43;;;;;;;40.67;27.07;;;10.50;99.90;;;;;;5031905;28;20211;-41
2023/03/03 12:38:24;;;;;;;41.63;26.70;;;10.50;99.90;;;;;;5032284;28;20179;-44
2023/03/03 12:41:23;;;;;;;38.97;25.70;;;10.50;99.90;;;;;;4996709;28;20197;-44
2023/03/03 12:44:14;;;;;;;42.10;26.87;;;10.50;99.90;;;;;;5011021;28;20249;-43
2023/03/03 12:46:58;;;;;;;41.50;27.13;;;10.20;99.90;;;;;;5021741;28;20204;-47
2023/03/03 12:49:33;;;;;;;40.07;26.40;;;10.30;99.90;;;;;;5014977;28;20175;-45
2023/03/03 12:52:21;;;;;;;42.43;25.33;;;10.40;99.90;;;;;;5015079;28;20178;-41
2023/03/03 12:55:05;;;;;;;38.40;25.07;;;10.40;99.90;;;;;;4980293;28;20179;-43
2023/03/03 12:57:37;;;;;;;37.70;26.00;;;10.70;99.90;;;;;;4994764;28;20208;-41
2023/03/03 13:00:25;;;;;;;38.23;25.60;;;10.80;99.90;;;;;;5013324;28;20184;-42
2023/03/03 13:03:34;;;;;;;42.70;25.90;;;10.90;99.90;;;;;;5030899;28;20210;-42
2023/03/03 13:06:12;;;;;;;40.20;27.10;;;10.70;99.90;;;;;;5013376;28;20302;-42
2023/03/03 13:08:57;;;;;;;36.83;24.63;;;10.80;99.90;;;;;;5031546;28;20183;-46
2023/03/03 13:11:49;;;;;;;41.23;27.17;;;11.00;99.90;;;;;;5031421;28;20531;-45
2023/03/03 13:14:39;;;;;;;41.70;25.73;;;11.30;99.90;;;;;;5013839;28;20177;-42